Time,TemperatureF,DewpointF,PressureIn,WindDirection,WindDirectionDegrees,WindSpeedMPH,WindSpeedGustMPH,Humidity,HourlyPrecipIn,Conditions,Clouds,dailyrainin,SoftwareType,DateUTC
2013-02-20 00:01:00,33.7,25.3,29.81,West,277,3.0,3.0,71,0.00,,,0.14,Wunderground v.1.15,2013-02-20 05:01:00,
2013-02-20 00:02:00,33.6,25.2,29.81,West,273,3.0,3.0,71,0.00,,,0.00,Wunderground v.1.15,2013-02-20 05:02:00,
2013-02-20 00:03:00,33.5,25.1,29.81,WNW,287,3.0,6.0,71,0.00,,,0.00,Wunderground v.1.15,2013-02-20 05:03:00,
2013-02-20 00:07:00,33.6,24.5,29.81,WNW,290,4.0,8.0,69,0.00,,,0.00,Wunderground v.1.15,2013-02-20 05:07:00,
2013-02-20 00:12:00,33.7,24.3,29.81,WNW,287,4.0,4.0,68,0.00,,,0.00,Wunderground v.1.15,2013-02-20 05:12:00,
2013-02-20 00:17:00,33.5,24.4,29.82,West,276,3.0,4.0,69,0.00,,,0.00,Wunderground v.1.15,2013-02-20 05:17:00,
2013-02-20 00:22:00,33.7,23.5,29.82,West,280,4.0,5.0,66,0.00,,,0.00,Wunderground v.1.15,2013-02-20 05:22:00,
2013-02-20 00:28:00,33.7,23.5,29.82,West,274,5.0,6.0,66,0.00,,,0.00,Wunderground v.1.15,2013-02-20 05:28:00,
2013-02-20 00:34:00,33.4,23.3,29.83,SSW,205,4.0,4.0,66,0.00,,,0.00,Wunderground v.1.15,2013-02-20 05:34:00,
2013-02-20 00:39:00,33.1,23.0,29.83,WNW,294,3.0,6.0,66,0.00,,,0.00,Wunderground v.1.15,2013-02-20 05:39:00,
2013-02-20 00:45:00,33.1,21.9,29.83,WNW,283,5.0,5.0,63,0.00,,,0.00,Wunderground v.1.15,2013-02-20 05:45:00,
2013-02-20 00:51:00,32.8,22.0,29.83,WNW,285,5.0,7.0,64,0.00,,,0.00,Wunderground v.1.15,2013-02-20 05:51:00,
2013-02-20 00:57:00,32.8,21.2,29.83,WNW,291,5.0,9.0,62,0.00,,,0.00,Wunderground v.1.15,2013-02-20 05:57:00,
2013-02-20 01:02:00,32.7,20.7,29.83,NW,313,6.0,11.0,61,0.00,,,0.00,Wunderground v.1.15,2013-02-20 06:02:00,
2013-02-20 01:07:00,32.6,20.2,29.83,West,267,7.0,11.0,60,0.00,,,0.00,Wunderground v.1.15,2013-02-20 06:07:00,
2013-02-20 01:13:00,32.4,20.0,29.83,WNW,292,9.0,13.0,60,0.00,,,0.00,Wunderground v.1.15,2013-02-20 06:13:00,
2013-02-20 01:19:00,32.3,19.6,29.83,West,271,8.0,13.0,59,0.00,,,0.00,Wunderground v.1.15,2013-02-20 06:19:00,
2013-02-20 01:25:00,32.1,19.8,29.83,NNW,347,7.0,10.0,60,0.00,,,0.00,Wunderground v.1.15,2013-02-20 06:25:00,
2013-02-20 01:30:00,31.9,20.0,29.83,WSW,246,6.0,11.0,61,0.00,,,0.00,Wunderground v.1.15,2013-02-20 06:30:00,
2013-02-20 01:35:00,31.7,20.2,29.83,WNW,289,6.0,9.0,62,0.00,,,0.00,Wunderground v.1.15,2013-02-20 06:35:00,
2013-02-20 01:41:00,31.7,20.2,29.84,West,274,6.0,7.0,62,0.00,,,0.00,Wunderground v.1.15,2013-02-20 06:41:00,
2013-02-20 01:47:00,31.5,20.0,29.84,West,280,6.0,7.0,62,0.00,,,0.00,Wunderground v.1.15,2013-02-20 06:47:00,
2013-02-20 01:53:00,31.3,20.2,29.84,West,259,4.0,7.0,63,0.00,,,0.00,Wunderground v.1.15,2013-02-20 06:53:00,
2013-02-20 01:59:00,31.2,19.7,29.85,West,281,4.0,7.0,62,0.00,,,0.00,Wunderground v.1.15,2013-02-20 06:59:00,
2013-02-20 02:04:00,31.2,20.1,29.85,WSW,255,4.0,5.0,63,0.00,,,0.00,Wunderground v.1.15,2013-02-20 07:04:00,
2013-02-20 02:10:00,31.2,20.1,29.85,NW,311,3.0,5.0,63,0.00,,,0.00,Wunderground v.1.15,2013-02-20 07:10:00,
2013-02-20 02:15:00,31.2,20.4,29.86,WNW,288,3.0,4.0,64,0.00,,,0.00,Wunderground v.1.15,2013-02-20 07:15:00,
2013-02-20 02:21:00,31.3,20.2,29.86,NW,326,3.0,4.0,63,0.00,,,0.00,Wunderground v.1.15,2013-02-20 07:21:00,
2013-02-20 02:27:00,31.3,20.2,29.86,WNW,288,4.0,7.0,63,0.00,,,0.00,Wunderground v.1.15,2013-02-20 07:27:00,
2013-02-20 02:32:00,31.3,19.8,29.86,West,263,5.0,6.0,62,0.00,,,0.00,Wunderground v.1.15,2013-02-20 07:32:00,
2013-02-20 02:37:00,31.2,18.9,29.85,NNW,339,7.0,13.0,60,0.00,,,0.00,Wunderground v.1.15,2013-02-20 07:37:00,
2013-02-20 02:43:00,31.2,18.9,29.85,West,264,8.0,13.0,60,0.00,,,0.00,Wunderground v.1.15,2013-02-20 07:43:00,
2013-02-20 02:48:00,31.0,18.7,29.85,West,269,8.0,13.0,60,0.00,,,0.00,Wunderground v.1.15,2013-02-20 07:48:00,
2013-02-20 02:54:00,30.8,18.5,29.85,WNW,297,7.0,8.0,60,0.00,,,0.00,Wunderground v.1.15,2013-02-20 07:54:00,
2013-02-20 02:59:00,30.7,18.8,29.85,NNW,340,6.0,8.0,61,0.00,,,0.00,Wunderground v.1.15,2013-02-20 07:59:00,
2013-02-20 03:08:00,30.5,19.0,29.86,West,269,3.0,6.0,62,0.00,,,0.00,Wunderground v.1.15,2013-02-20 08:08:00,
2013-02-20 03:13:00,30.4,18.9,29.87,WNW,294,3.0,6.0,62,0.00,,,0.00,Wunderground v.1.15,2013-02-20 08:13:00,
2013-02-20 03:19:00,30.3,18.5,29.87,WNW,301,4.0,8.0,61,0.00,,,0.00,Wunderground v.1.15,2013-02-20 08:19:00,
2013-02-20 03:25:00,30.2,18.4,29.87,WNW,294,4.0,9.0,61,0.00,,,0.00,Wunderground v.1.15,2013-02-20 08:25:00,
2013-02-20 03:30:00,30.2,18.0,29.87,West,281,4.0,9.0,60,0.00,,,0.00,Wunderground v.1.15,2013-02-20 08:30:00,
2013-02-20 03:36:00,30.1,17.9,29.86,WNW,288,5.0,5.0,60,0.00,,,0.00,Wunderground v.1.15,2013-02-20 08:36:00,
2013-02-20 03:41:00,29.9,18.1,29.86,WNW,297,4.0,4.0,61,0.00,,,0.00,Wunderground v.1.15,2013-02-20 08:41:00,
2013-02-20 03:47:00,29.7,18.3,29.86,WNW,285,4.0,6.0,62,0.00,,,0.00,Wunderground v.1.15,2013-02-20 08:47:00,
2013-02-20 03:52:00,29.6,18.2,29.86,WNW,287,4.0,4.0,62,0.00,,,0.00,Wunderground v.1.15,2013-02-20 08:52:00,
2013-02-20 03:58:00,29.5,18.1,29.86,West,269,3.0,6.0,62,0.00,,,0.00,Wunderground v.1.15,2013-02-20 08:58:00,
2013-02-20 04:03:00,29.4,17.6,29.87,West,278,4.0,5.0,61,0.00,,,0.00,Wunderground v.1.15,2013-02-20 09:03:00,
2013-02-20 04:08:00,29.4,17.2,29.87,WSW,245,5.0,10.0,60,0.00,,,0.00,Wunderground v.1.15,2013-02-20 09:08:00,
2013-02-20 04:14:00,29.4,17.6,29.87,NNW,327,5.0,6.0,61,0.00,,,0.00,Wunderground v.1.15,2013-02-20 09:14:00,
2013-02-20 04:20:00,29.4,18.3,29.88,West,277,3.0,3.0,63,0.00,,,0.00,Wunderground v.1.15,2013-02-20 09:20:00,
2013-02-20 04:26:00,29.3,18.3,29.88,WNW,282,2.0,3.0,63,0.00,,,0.00,Wunderground v.1.15,2013-02-20 09:26:00,
2013-02-20 04:32:00,29.3,18.6,29.88,West,274,3.0,4.0,64,0.00,,,0.00,Wunderground v.1.15,2013-02-20 09:32:00,
2013-02-20 04:38:00,29.3,19.0,29.88,WNW,290,3.0,5.0,65,0.00,,,0.00,Wunderground v.1.15,2013-02-20 09:38:00,
2013-02-20 04:44:00,29.4,18.3,29.88,WNW,297,4.0,6.0,63,0.00,,,0.00,Wunderground v.1.15,2013-02-20 09:44:00,
2013-02-20 04:50:00,29.4,18.0,29.88,WNW,285,6.0,12.0,62,0.00,,,0.00,Wunderground v.1.15,2013-02-20 09:50:00,
2013-02-20 04:56:00,29.4,18.0,29.89,WNW,294,6.0,12.0,62,0.00,,,0.00,Wunderground v.1.15,2013-02-20 09:56:00,
2013-02-20 05:02:00,29.3,17.9,29.89,WNW,287,5.0,6.0,62,0.00,,,0.00,Wunderground v.1.15,2013-02-20 10:02:00,
2013-02-20 05:07:00,29.3,18.3,29.89,WNW,295,5.0,8.0,63,0.00,,,0.00,Wunderground v.1.15,2013-02-20 10:07:00,
2013-02-20 05:13:00,29.2,18.2,29.89,West,259,4.0,6.0,63,0.00,,,0.00,Wunderground v.1.15,2013-02-20 10:13:00,
2013-02-20 05:19:00,29.1,18.1,29.90,West,267,5.0,8.0,63,0.00,,,0.00,Wunderground v.1.15,2013-02-20 10:19:00,
2013-02-20 05:24:00,29.1,18.1,29.90,NNE,19,5.0,5.0,63,0.00,,,0.00,Wunderground v.1.15,2013-02-20 10:24:00,
2013-02-20 05:30:00,28.9,17.9,29.90,West,276,5.0,6.0,63,0.00,,,0.00,Wunderground v.1.15,2013-02-20 10:30:00,
2013-02-20 05:36:00,28.7,17.7,29.90,WNW,302,6.0,17.0,63,0.00,,,0.00,Wunderground v.1.15,2013-02-20 10:36:00,
2013-02-20 05:41:00,28.4,17.4,29.90,West,280,6.0,6.0,63,0.00,,,0.00,Wunderground v.1.15,2013-02-20 10:41:00,
2013-02-20 05:47:00,28.3,17.7,29.91,WNW,288,5.0,6.0,64,0.00,,,0.00,Wunderground v.1.15,2013-02-20 10:47:00,
2013-02-20 05:53:00,28.1,17.5,29.91,West,268,5.0,6.0,64,0.00,,,0.00,Wunderground v.1.15,2013-02-20 10:53:00,
2013-02-20 05:58:00,28.1,17.1,29.92,WNW,295,6.0,9.0,63,0.00,,,0.00,Wunderground v.1.15,2013-02-20 10:58:00,
2013-02-20 06:04:00,28.1,17.1,29.92,WNW,288,6.0,10.0,63,0.00,,,0.00,Wunderground v.1.15,2013-02-20 11:04:00,
2013-02-20 06:10:00,28.1,17.1,29.92,West,264,6.0,10.0,63,0.00,,,0.00,Wunderground v.1.15,2013-02-20 11:10:00,
2013-02-20 06:15:00,28.0,17.0,29.92,West,274,6.0,6.0,63,0.00,,,0.00,Wunderground v.1.15,2013-02-20 11:15:00,
2013-02-20 06:21:00,27.9,16.9,29.92,WNW,293,5.0,5.0,63,0.00,,,0.00,Wunderground v.1.15,2013-02-20 11:21:00,
2013-02-20 06:26:00,27.8,16.1,29.93,WNW,293,5.0,8.0,61,0.00,,,0.00,Wunderground v.1.15,2013-02-20 11:26:00,
2013-02-20 06:32:00,27.6,15.1,29.93,NE,56,6.0,9.0,59,0.00,,,0.00,Wunderground v.1.15,2013-02-20 11:32:00,
2013-02-20 06:38:00,27.5,15.0,29.93,WNW,291,8.0,15.0,59,0.00,,,0.00,Wunderground v.1.15,2013-02-20 11:38:00,
2013-02-20 06:44:00,27.5,14.6,29.93,WNW,293,9.0,18.0,58,0.00,,,0.00,Wunderground v.1.15,2013-02-20 11:44:00,
2013-02-20 06:50:00,27.3,14.8,29.94,WNW,291,7.0,18.0,59,0.00,,,0.00,Wunderground v.1.15,2013-02-20 11:50:00,
2013-02-20 06:56:00,27.1,14.7,29.94,WNW,285,6.0,8.0,59,0.00,,,0.00,Wunderground v.1.15,2013-02-20 11:56:00,
2013-02-20 07:02:00,27.0,14.6,29.94,West,278,6.0,7.0,59,0.00,,,0.00,Wunderground v.1.15,2013-02-20 12:02:00,
2013-02-20 07:08:00,27.0,14.6,29.94,WNW,287,6.0,10.0,59,0.00,,,0.00,Wunderground v.1.15,2013-02-20 12:08:00,
2013-02-20 07:14:00,27.0,14.6,29.95,North,6,7.0,8.0,59,0.00,,,0.00,Wunderground v.1.15,2013-02-20 12:14:00,
2013-02-20 07:19:00,27.0,14.9,29.95,WNW,285,7.0,8.0,60,0.00,,,0.00,Wunderground v.1.15,2013-02-20 12:19:00,
2013-02-20 07:24:00,27.0,14.9,29.95,West,270,6.0,8.0,60,0.00,,,0.00,Wunderground v.1.15,2013-02-20 12:24:00,
2013-02-20 07:30:00,26.9,15.2,29.95,NNW,328,5.0,9.0,61,0.00,,,0.00,Wunderground v.1.15,2013-02-20 12:30:00,
2013-02-20 07:36:00,27.0,15.3,29.96,NNW,335,6.0,9.0,61,0.00,,,0.00,Wunderground v.1.15,2013-02-20 12:36:00,
2013-02-20 07:41:00,27.0,15.3,29.96,West,262,6.0,6.0,61,0.00,,,0.00,Wunderground v.1.15,2013-02-20 12:41:00,
2013-02-20 07:47:00,27.0,15.3,29.96,West,270,5.0,8.0,61,0.00,,,0.00,Wunderground v.1.15,2013-02-20 12:47:00,
2013-02-20 07:52:00,27.1,15.8,29.97,WNW,288,5.0,7.0,62,0.00,,,0.00,Wunderground v.1.15,2013-02-20 12:52:00,
2013-02-20 07:57:00,27.1,15.0,29.97,West,280,5.0,11.0,60,0.00,,,0.00,Wunderground v.1.15,2013-02-20 12:57:00,
2013-02-20 08:03:00,27.2,15.5,29.97,NW,309,6.0,6.0,61,0.00,,,0.00,Wunderground v.1.15,2013-02-20 13:03:00,
2013-02-20 08:09:00,27.1,15.4,29.97,WNW,302,6.0,8.0,61,0.00,,,0.00,Wunderground v.1.15,2013-02-20 13:09:00,
2013-02-20 08:15:00,27.0,15.7,29.97,WNW,287,6.0,9.0,62,0.00,,,0.00,Wunderground v.1.15,2013-02-20 13:15:00,
2013-02-20 08:21:00,27.1,16.2,29.97,WNW,288,4.0,5.0,63,0.00,,,0.00,Wunderground v.1.15,2013-02-20 13:21:00,
2013-02-20 08:26:00,26.9,17.7,29.97,NW,318,4.0,7.0,68,0.00,,,0.00,Wunderground v.1.15,2013-02-20 13:26:00,
2013-02-20 08:32:00,26.7,17.9,29.97,West,273,5.0,7.0,69,0.00,,,0.00,Wunderground v.1.15,2013-02-20 13:32:00,
2013-02-20 08:38:00,26.6,17.5,29.97,NW,304,4.0,7.0,68,0.00,,,0.00,Wunderground v.1.15,2013-02-20 13:38:00,
2013-02-20 08:44:00,26.2,17.4,29.97,WNW,288,5.0,5.0,69,0.00,,,0.00,Wunderground v.1.15,2013-02-20 13:44:00,
2013-02-20 08:50:00,26.0,17.2,29.97,WSW,245,6.0,10.0,69,0.00,,,0.00,Wunderground v.1.15,2013-02-20 13:50:00,
2013-02-20 08:55:00,25.7,17.6,29.98,WNW,283,6.0,10.0,71,0.00,,,0.00,Wunderground v.1.15,2013-02-20 13:55:00,
2013-02-20 09:01:00,25.7,17.9,29.98,West,280,5.0,6.0,72,0.00,,,0.00,Wunderground v.1.15,2013-02-20 14:01:00,
2013-02-20 09:06:00,25.5,18.0,29.98,North,8,5.0,11.0,73,0.00,,,0.00,Wunderground v.1.15,2013-02-20 14:06:00,
2013-02-20 09:11:00,25.0,18.5,29.98,WNW,293,5.0,6.0,76,0.00,,,0.00,Wunderground v.1.15,2013-02-20 14:11:00,
2013-02-20 09:17:00,24.7,18.2,29.98,WNW,297,6.0,8.0,76,0.00,,,0.00,Wunderground v.1.15,2013-02-20 14:17:00,
2013-02-20 09:22:00,24.8,18.0,29.98,WNW,287,5.0,5.0,75,0.00,,,0.00,Wunderground v.1.15,2013-02-20 14:22:00,
2013-02-20 09:27:00,24.9,17.5,29.98,NNW,329,5.0,12.0,73,0.00,,,0.00,Wunderground v.1.15,2013-02-20 14:27:00,
2013-02-20 09:32:00,24.8,17.4,29.98,West,274,6.0,10.0,73,0.00,,,0.00,Wunderground v.1.15,2013-02-20 14:32:00,
2013-02-20 09:38:00,24.8,17.1,29.99,WSW,246,6.0,11.0,72,0.00,,,0.00,Wunderground v.1.15,2013-02-20 14:38:00,
2013-02-20 09:44:00,24.9,17.1,29.98,WNW,302,7.0,8.0,72,0.00,,,0.00,Wunderground v.1.15,2013-02-20 14:44:00,
2013-02-20 09:49:00,25.3,17.5,29.99,NW,304,7.0,8.0,72,0.00,,,0.00,Wunderground v.1.15,2013-02-20 14:49:00,
2013-02-20 09:54:00,25.6,17.5,29.99,WNW,293,5.0,9.0,71,0.00,,,0.00,Wunderground v.1.15,2013-02-20 14:54:00,
2013-02-20 10:01:00,25.7,16.9,29.99,NNW,338,7.0,7.0,69,0.00,,,0.00,Wunderground v.1.15,2013-02-20 15:01:00,
2013-02-20 10:06:00,26.0,16.5,29.99,WNW,285,7.0,10.0,67,0.00,,,0.00,Wunderground v.1.15,2013-02-20 15:06:00,
2013-02-20 10:11:00,26.3,16.1,29.99,NNW,328,7.0,12.0,65,0.00,,,0.00,Wunderground v.1.15,2013-02-20 15:11:00,
2013-02-20 10:17:00,26.0,15.5,29.99,West,278,8.0,12.0,64,0.00,,,0.00,Wunderground v.1.15,2013-02-20 15:17:00,
2013-02-20 10:23:00,26.1,16.3,29.99,WNW,285,6.0,11.0,66,0.00,,,0.00,Wunderground v.1.15,2013-02-20 15:23:00,
2013-02-20 10:28:00,26.0,16.2,29.99,West,274,6.0,11.0,66,0.00,,,0.00,Wunderground v.1.15,2013-02-20 15:28:00,
2013-02-20 10:34:00,26.4,15.5,29.98,NE,34,6.0,6.0,63,0.00,,,0.00,Wunderground v.1.15,2013-02-20 15:34:00,
2013-02-20 10:40:00,26.9,15.2,29.99,West,263,7.0,11.0,61,0.00,,,0.00,Wunderground v.1.15,2013-02-20 15:40:00,
2013-02-20 10:45:00,27.2,14.0,29.99,West,271,7.0,10.0,57,0.00,,,0.00,Wunderground v.1.15,2013-02-20 15:45:00,
2013-02-20 10:51:00,27.8,14.5,29.99,West,278,7.0,7.0,57,0.00,,,0.00,Wunderground v.1.15,2013-02-20 15:51:00,
2013-02-20 10:57:00,28.0,13.9,29.99,NW,316,8.0,11.0,55,0.00,,,0.00,Wunderground v.1.15,2013-02-20 15:57:00,
2013-02-20 11:03:00,28.1,13.6,29.99,WSW,252,8.0,11.0,54,0.00,,,0.00,Wunderground v.1.15,2013-02-20 16:03:00,
2013-02-20 11:09:00,27.5,13.8,29.99,WNW,285,7.0,11.0,56,0.00,,,0.00,Wunderground v.1.15,2013-02-20 16:09:00,
2013-02-20 11:15:00,27.7,14.0,29.99,NW,316,5.0,7.0,56,0.00,,,0.00,Wunderground v.1.15,2013-02-20 16:15:00,
2013-02-20 11:20:00,27.5,12.6,29.99,NW,312,6.0,7.0,53,0.00,,,0.00,Wunderground v.1.15,2013-02-20 16:20:00,
2013-02-20 11:26:00,27.1,12.2,29.99,NW,319,7.0,9.0,53,0.00,,,0.00,Wunderground v.1.15,2013-02-20 16:26:00,
2013-02-20 11:32:00,27.1,13.1,29.99,WNW,295,6.0,7.0,55,0.00,,,0.00,Wunderground v.1.15,2013-02-20 16:32:00,
2013-02-20 11:37:00,27.3,13.2,29.99,WNW,290,5.0,7.0,55,0.00,,,0.00,Wunderground v.1.15,2013-02-20 16:37:00,
2013-02-20 11:43:00,27.7,13.2,29.99,WSW,257,6.0,6.0,54,0.00,,,0.00,Wunderground v.1.15,2013-02-20 16:43:00,
2013-02-20 11:48:00,27.6,12.2,29.99,WNW,285,6.0,10.0,52,0.00,,,0.00,Wunderground v.1.15,2013-02-20 16:48:00,
2013-02-20 11:53:00,27.5,13.0,29.98,NNW,329,6.0,8.0,54,0.00,,,0.00,Wunderground v.1.15,2013-02-20 16:53:00,
2013-02-20 11:59:00,27.8,12.9,29.98,WNW,293,6.0,11.0,53,0.00,,,0.00,Wunderground v.1.15,2013-02-20 16:59:00,
2013-02-20 12:05:00,28.1,14.0,29.98,WSW,256,5.0,6.0,55,0.00,,,0.00,Wunderground v.1.15,2013-02-20 17:05:00,
2013-02-20 12:11:00,28.0,13.1,29.98,SW,226,5.0,5.0,53,0.00,,,0.00,Wunderground v.1.15,2013-02-20 17:11:00,
2013-02-20 12:17:00,28.0,13.5,29.98,North,6,5.0,7.0,54,0.00,,,0.00,Wunderground v.1.15,2013-02-20 17:17:00,
2013-02-20 12:23:00,27.8,12.9,29.98,WNW,285,5.0,8.0,53,0.00,,,0.00,Wunderground v.1.15,2013-02-20 17:23:00,
2013-02-20 12:29:00,28.3,14.6,29.98,West,281,5.0,8.0,56,0.00,,,0.00,Wunderground v.1.15,2013-02-20 17:29:00,
2013-02-20 12:34:00,28.9,15.6,29.98,WNW,294,5.0,6.0,57,0.00,,,0.00,Wunderground v.1.15,2013-02-20 17:34:00,
2013-02-20 12:40:00,29.1,16.9,29.98,West,274,6.0,13.0,60,0.00,,,0.00,Wunderground v.1.15,2013-02-20 17:40:00,
2013-02-20 12:46:00,28.6,17.6,29.98,West,260,6.0,11.0,63,0.00,,,0.00,Wunderground v.1.15,2013-02-20 17:46:00,
2013-02-20 12:51:00,29.0,18.0,29.98,WNW,289,6.0,7.0,63,0.00,,,0.00,Wunderground v.1.15,2013-02-20 17:51:00,
2013-02-20 12:56:00,29.0,16.8,29.98,WSW,249,6.0,10.0,60,0.00,,,0.00,Wunderground v.1.15,2013-02-20 17:56:00,
2013-02-20 13:02:00,28.6,17.2,29.98,NW,312,7.0,7.0,62,0.00,,,0.00,Wunderground v.1.15,2013-02-20 18:02:00,
2013-02-20 13:09:00,28.3,16.6,29.98,SW,231,7.0,10.0,61,0.00,,,0.00,Wunderground v.1.15,2013-02-20 18:09:00,
2013-02-20 13:14:00,28.8,17.0,29.98,WSW,245,7.0,8.0,61,0.00,,,0.00,Wunderground v.1.15,2013-02-20 18:14:00,
2013-02-20 13:19:00,28.5,16.0,29.98,West,276,7.0,10.0,59,0.00,,,0.00,Wunderground v.1.15,2013-02-20 18:19:00,
2013-02-20 13:25:00,28.4,16.3,29.98,NW,305,7.0,11.0,60,0.00,,,0.00,Wunderground v.1.15,2013-02-20 18:25:00,
2013-02-20 13:31:00,28.4,17.0,29.98,WNW,298,6.0,6.0,62,0.00,,,0.00,Wunderground v.1.15,2013-02-20 18:31:00,
2013-02-20 13:36:00,28.3,15.8,29.98,NNE,30,6.0,8.0,59,0.00,,,0.00,Wunderground v.1.15,2013-02-20 18:36:00,
2013-02-20 13:41:00,28.4,16.3,29.98,NNW,332,6.0,6.0,60,0.00,,,0.00,Wunderground v.1.15,2013-02-20 18:41:00,
2013-02-20 13:47:00,28.6,14.9,29.98,NW,307,6.0,10.0,56,0.00,,,0.00,Wunderground v.1.15,2013-02-20 18:47:00,
2013-02-20 13:52:00,28.6,15.3,29.98,NW,314,7.0,7.0,57,0.00,,,0.00,Wunderground v.1.15,2013-02-20 18:52:00,
2013-02-20 13:58:00,28.8,15.5,29.99,SW,219,6.0,10.0,57,0.00,,,0.00,Wunderground v.1.15,2013-02-20 18:58:00,
2013-02-20 14:03:00,28.6,14.0,29.99,SE,129,6.0,8.0,54,0.00,,,0.00,Wunderground v.1.15,2013-02-20 19:03:00,
2013-02-20 14:08:00,28.4,13.0,29.99,WNW,301,7.0,9.0,52,0.00,,,0.00,Wunderground v.1.15,2013-02-20 19:08:00,
2013-02-20 14:13:00,28.3,12.5,29.99,West,264,7.0,10.0,51,0.00,,,0.00,Wunderground v.1.15,2013-02-20 19:13:00,
2013-02-20 14:18:00,28.2,12.4,30.00,West,280,7.0,10.0,51,0.00,,,0.00,Wunderground v.1.15,2013-02-20 19:18:00,
2013-02-20 14:24:00,28.2,12.8,29.99,NW,321,6.0,9.0,52,0.00,,,0.00,Wunderground v.1.15,2013-02-20 19:24:00,
2013-02-20 14:30:00,28.1,12.7,29.99,West,274,5.0,9.0,52,0.00,,,0.00,Wunderground v.1.15,2013-02-20 19:30:00,
2013-02-20 14:36:00,28.1,13.1,29.99,WNW,296,6.0,7.0,53,0.00,,,0.00,Wunderground v.1.15,2013-02-20 19:36:00,
2013-02-20 14:42:00,28.0,12.2,29.99,WNW,283,6.0,9.0,51,0.00,,,0.00,Wunderground v.1.15,2013-02-20 19:42:00,
2013-02-20 14:47:00,27.9,12.1,29.99,West,278,7.0,13.0,51,0.00,,,0.00,Wunderground v.1.15,2013-02-20 19:47:00,
2013-02-20 14:53:00,28.0,12.6,30.00,WNW,285,7.0,10.0,52,0.00,,,0.00,Wunderground v.1.15,2013-02-20 19:53:00,
2013-02-20 14:58:00,27.8,11.1,30.00,NW,305,7.0,10.0,49,0.00,,,0.00,Wunderground v.1.15,2013-02-20 19:58:00,
2013-02-20 15:04:00,27.7,11.5,30.00,West,277,8.0,15.0,50,0.00,,,0.00,Wunderground v.1.15,2013-02-20 20:04:00,
2013-02-20 15:09:00,27.6,12.2,30.00,West,280,7.0,15.0,52,0.00,,,0.00,Wunderground v.1.15,2013-02-20 20:09:00,
2013-02-20 15:16:00,27.4,12.1,30.01,West,271,6.0,9.0,52,0.00,,,0.00,Wunderground v.1.15,2013-02-20 20:16:00,
2013-02-20 15:22:00,27.3,12.8,30.01,West,278,7.0,7.0,54,0.00,,,0.00,Wunderground v.1.15,2013-02-20 20:22:00,
2013-02-20 15:27:00,27.3,12.4,30.01,NNW,333,7.0,8.0,53,0.00,,,0.00,Wunderground v.1.15,2013-02-20 20:27:00,
2013-02-20 15:33:00,27.3,12.4,30.01,NW,315,7.0,9.0,53,0.00,,,0.00,Wunderground v.1.15,2013-02-20 20:33:00,
2013-02-20 15:39:00,27.5,12.6,30.01,WNW,289,8.0,11.0,53,0.00,,,0.00,Wunderground v.1.15,2013-02-20 20:39:00,
2013-02-20 15:44:00,27.5,12.6,30.01,West,276,7.0,8.0,53,0.00,,,0.00,Wunderground v.1.15,2013-02-20 20:44:00,
2013-02-20 15:50:00,27.4,12.5,30.01,NNW,336,6.0,9.0,53,0.00,,,0.00,Wunderground v.1.15,2013-02-20 20:50:00,
2013-02-20 15:55:00,27.5,13.0,30.02,WSW,243,7.0,11.0,54,0.00,,,0.00,Wunderground v.1.15,2013-02-20 20:55:00,
2013-02-20 16:01:00,27.5,12.6,30.02,West,267,7.0,7.0,53,0.00,,,0.00,Wunderground v.1.15,2013-02-20 21:01:00,
2013-02-20 16:06:00,27.4,12.9,30.02,NNW,331,7.0,9.0,54,0.00,,,0.00,Wunderground v.1.15,2013-02-20 21:06:00,
2013-02-20 16:11:00,27.3,12.4,30.03,WNW,298,7.0,9.0,53,0.00,,,0.00,Wunderground v.1.15,2013-02-20 21:11:00,
2013-02-20 16:16:00,27.3,12.8,30.03,WNW,296,8.0,11.0,54,0.00,,,0.00,Wunderground v.1.15,2013-02-20 21:16:00,
2013-02-20 16:22:00,27.0,12.5,30.04,NW,312,7.0,12.0,54,0.00,,,0.00,Wunderground v.1.15,2013-02-20 21:22:00,
2013-02-20 16:27:00,26.9,12.5,30.03,West,281,6.0,12.0,54,0.00,,,0.00,Wunderground v.1.15,2013-02-20 21:27:00,
2013-02-20 16:33:00,26.7,12.7,30.04,WNW,285,6.0,6.0,55,0.00,,,0.00,Wunderground v.1.15,2013-02-20 21:33:00,
2013-02-20 16:38:00,26.6,13.0,30.04,WNW,293,6.0,12.0,56,0.00,,,0.00,Wunderground v.1.15,2013-02-20 21:38:00,
2013-02-20 16:44:00,26.7,13.1,30.04,West,280,6.0,8.0,56,0.00,,,0.00,Wunderground v.1.15,2013-02-20 21:44:00,
2013-02-20 16:49:00,26.7,13.1,30.04,WNW,293,5.0,8.0,56,0.00,,,0.00,Wunderground v.1.15,2013-02-20 21:49:00,
2013-02-20 16:55:00,26.7,12.7,30.05,West,274,5.0,9.0,55,0.00,,,0.00,Wunderground v.1.15,2013-02-20 21:55:00,
2013-02-20 17:01:00,26.7,13.1,30.05,WNW,294,6.0,9.0,56,0.00,,,0.00,Wunderground v.1.15,2013-02-20 22:01:00,
2013-02-20 17:06:00,26.7,12.7,30.05,WNW,294,6.0,9.0,55,0.00,,,0.00,Wunderground v.1.15,2013-02-20 22:06:00,
2013-02-20 17:11:00,26.5,12.9,30.06,NW,309,6.0,6.0,56,0.00,,,0.00,Wunderground v.1.15,2013-02-20 22:11:00,
2013-02-20 17:17:00,26.3,12.7,30.06,WNW,294,5.0,6.0,56,0.00,,,0.00,Wunderground v.1.15,2013-02-20 22:17:00,
2013-02-20 17:24:00,26.3,12.7,30.06,West,278,5.0,7.0,56,0.00,,,0.00,Wunderground v.1.15,2013-02-20 22:24:00,
2013-02-20 17:29:00,26.1,12.5,30.06,WNW,285,5.0,7.0,56,0.00,,,0.00,Wunderground v.1.15,2013-02-20 22:29:00,
2013-02-20 17:34:00,26.0,12.4,30.06,WNW,292,6.0,9.0,56,0.00,,,0.00,Wunderground v.1.15,2013-02-20 22:34:00,
2013-02-20 17:39:00,25.8,12.6,30.06,West,271,7.0,10.0,57,0.00,,,0.00,Wunderground v.1.15,2013-02-20 22:39:00,
2013-02-20 17:46:00,25.7,12.9,30.06,West,280,6.0,7.0,58,0.00,,,0.00,Wunderground v.1.15,2013-02-20 22:46:00,
2013-02-20 17:51:00,25.6,12.9,30.06,West,269,5.0,5.0,58,0.00,,,0.00,Wunderground v.1.15,2013-02-20 22:51:00,
2013-02-20 17:56:00,25.6,12.9,30.05,WSW,237,5.0,8.0,58,0.00,,,0.00,Wunderground v.1.15,2013-02-20 22:56:00,
2013-02-20 18:02:00,25.4,13.4,30.05,NNE,32,5.0,5.0,60,0.00,,,0.00,Wunderground v.1.15,2013-02-20 23:02:00,
2013-02-20 18:08:00,25.2,12.9,30.05,West,269,5.0,8.0,59,0.00,,,0.00,Wunderground v.1.15,2013-02-20 23:08:00,
2013-02-20 18:13:00,25.2,12.5,30.06,WNW,290,6.0,8.0,58,0.00,,,0.00,Wunderground v.1.15,2013-02-20 23:13:00,
2013-02-20 18:19:00,25.2,12.5,30.06,West,273,6.0,8.0,58,0.00,,,0.00,Wunderground v.1.15,2013-02-20 23:19:00,
2013-02-20 18:24:00,25.1,12.4,30.06,WNW,295,5.0,6.0,58,0.00,,,0.00,Wunderground v.1.15,2013-02-20 23:24:00,
2013-02-20 18:30:00,25.0,12.7,30.07,West,271,6.0,10.0,59,0.00,,,0.00,Wunderground v.1.15,2013-02-20 23:30:00,
2013-02-20 18:36:00,24.9,12.6,30.07,North,349,5.0,9.0,59,0.00,,,0.00,Wunderground v.1.15,2013-02-20 23:36:00,
2013-02-20 18:42:00,24.9,12.6,30.07,WNW,288,5.0,5.0,59,0.00,,,0.00,Wunderground v.1.15,2013-02-20 23:42:00,
2013-02-20 18:47:00,24.8,12.9,30.07,NNW,332,5.0,6.0,60,0.00,,,0.00,Wunderground v.1.15,2013-02-20 23:47:00,
2013-02-20 18:53:00,24.8,12.9,30.07,NW,304,4.0,5.0,60,0.00,,,0.00,Wunderground v.1.15,2013-02-20 23:53:00,
2013-02-20 18:59:00,24.8,12.9,30.07,NW,305,4.0,7.0,60,0.00,,,0.00,Wunderground v.1.15,2013-02-20 23:59:00,
2013-02-20 19:04:00,24.9,12.6,30.07,West,276,5.0,5.0,59,0.00,,,0.00,Wunderground v.1.15,2013-02-21 00:04:00,
2013-02-20 19:10:00,24.9,12.6,30.07,WNW,298,5.0,8.0,59,0.00,,,0.00,Wunderground v.1.15,2013-02-21 00:10:00,
2013-02-20 19:15:00,24.9,12.2,30.07,WNW,293,6.0,7.0,58,0.00,,,0.00,Wunderground v.1.15,2013-02-21 00:15:00,
2013-02-20 19:21:00,24.9,12.2,30.07,WNW,287,5.0,6.0,58,0.00,,,0.00,Wunderground v.1.15,2013-02-21 00:21:00,
2013-02-20 19:27:00,24.8,12.1,30.07,WSW,252,6.0,14.0,58,0.00,,,0.00,Wunderground v.1.15,2013-02-21 00:27:00,
2013-02-20 19:34:00,24.9,12.2,30.07,NNW,337,8.0,8.0,58,0.00,,,0.00,Wunderground v.1.15,2013-02-21 00:34:00,
2013-02-20 19:39:00,24.9,11.8,30.07,West,264,9.0,14.0,57,0.00,,,0.00,Wunderground v.1.15,2013-02-21 00:39:00,
2013-02-20 19:45:00,24.9,12.2,30.08,West,276,8.0,8.0,58,0.00,,,0.00,Wunderground v.1.15,2013-02-21 00:45:00,
2013-02-20 19:51:00,24.8,12.1,30.08,West,270,7.0,10.0,58,0.00,,,0.00,Wunderground v.1.15,2013-02-21 00:51:00,
2013-02-20 19:56:00,24.7,12.0,30.08,WNW,297,8.0,13.0,58,0.00,,,0.00,Wunderground v.1.15,2013-02-21 00:56:00,
2013-02-20 20:01:00,24.6,11.9,30.08,WNW,290,8.0,8.0,58,0.00,,,0.00,Wunderground v.1.15,2013-02-21 01:01:00,
2013-02-20 20:06:00,24.5,11.8,30.08,WNW,294,7.0,10.0,58,0.00,,,0.00,Wunderground v.1.15,2013-02-21 01:06:00,
2013-02-20 20:12:00,24.4,12.1,30.08,NW,305,7.0,9.0,59,0.00,,,0.00,Wunderground v.1.15,2013-02-21 01:12:00,
2013-02-20 20:18:00,24.4,12.1,30.08,WSW,256,6.0,11.0,59,0.00,,,0.00,Wunderground v.1.15,2013-02-21 01:18:00,
2013-02-20 20:23:00,24.3,12.0,30.08,NNW,333,6.0,11.0,59,0.00,,,0.00,Wunderground v.1.15,2013-02-21 01:23:00,
2013-02-20 20:29:00,24.2,11.9,30.08,WNW,293,7.0,12.0,59,0.00,,,0.00,Wunderground v.1.15,2013-02-21 01:29:00,
2013-02-20 20:35:00,24.1,12.2,30.08,West,278,6.0,7.0,60,0.00,,,0.00,Wunderground v.1.15,2013-02-21 01:35:00,
2013-02-20 20:40:00,24.0,12.1,30.08,WSW,239,5.0,7.0,60,0.00,,,0.00,Wunderground v.1.15,2013-02-21 01:40:00,
2013-02-20 20:45:00,23.9,12.4,30.08,WNW,282,5.0,7.0,61,0.00,,,0.00,Wunderground v.1.15,2013-02-21 01:45:00,
2013-02-20 20:51:00,23.8,12.3,30.08,WNW,295,5.0,6.0,61,0.00,,,0.00,Wunderground v.1.15,2013-02-21 01:51:00,
2013-02-20 20:57:00,23.7,12.2,30.08,WNW,300,5.0,6.0,61,0.00,,,0.00,Wunderground v.1.15,2013-02-21 01:57:00,
2013-02-20 21:02:00,23.6,12.1,30.08,WSW,243,5.0,8.0,61,0.00,,,0.00,Wunderground v.1.15,2013-02-21 02:02:00,
2013-02-20 21:08:00,23.6,12.1,30.08,West,268,5.0,8.0,61,0.00,,,0.00,Wunderground v.1.15,2013-02-21 02:08:00,
2013-02-20 21:13:00,23.5,11.6,30.08,WNW,293,5.0,10.0,60,0.00,,,0.00,Wunderground v.1.15,2013-02-21 02:13:00,
2013-02-20 21:18:00,23.4,11.5,30.09,WNW,283,5.0,10.0,60,0.00,,,0.00,Wunderground v.1.15,2013-02-21 02:18:00,
2013-02-20 21:24:00,23.4,11.5,30.08,WSW,252,4.0,7.0,60,0.00,,,0.00,Wunderground v.1.15,2013-02-21 02:24:00,
2013-02-20 21:31:00,23.3,11.4,30.08,WNW,291,5.0,5.0,60,0.00,,,0.00,Wunderground v.1.15,2013-02-21 02:31:00,
2013-02-20 21:36:00,23.2,11.4,30.08,West,271,4.0,7.0,60,0.00,,,0.00,Wunderground v.1.15,2013-02-21 02:36:00,
2013-02-20 21:41:00,23.1,11.6,30.08,West,279,5.0,5.0,61,0.00,,,0.00,Wunderground v.1.15,2013-02-21 02:41:00,
2013-02-20 21:46:00,23.1,11.3,30.08,WNW,291,5.0,11.0,60,0.00,,,0.00,Wunderground v.1.15,2013-02-21 02:46:00,
2013-02-20 21:52:00,23.1,11.3,30.09,West,266,6.0,6.0,60,0.00,,,0.00,Wunderground v.1.15,2013-02-21 02:52:00,
2013-02-20 21:58:00,23.2,11.4,30.09,WNW,291,5.0,7.0,60,0.00,,,0.00,Wunderground v.1.15,2013-02-21 02:58:00,
2013-02-20 22:03:00,23.1,11.3,30.09,West,279,5.0,11.0,60,0.00,,,0.00,Wunderground v.1.15,2013-02-21 03:03:00,
2013-02-20 22:08:00,23.1,11.3,30.10,WNW,290,5.0,11.0,60,0.00,,,0.00,Wunderground v.1.15,2013-02-21 03:08:00,
2013-02-20 22:14:00,23.0,10.8,30.09,West,278,5.0,7.0,59,0.00,,,0.00,Wunderground v.1.15,2013-02-21 03:14:00,
2013-02-20 22:20:00,23.0,11.2,30.09,West,274,6.0,9.0,60,0.00,,,0.00,Wunderground v.1.15,2013-02-21 03:20:00,
2013-02-20 22:25:00,22.9,11.1,30.09,WNW,286,5.0,7.0,60,0.00,,,0.00,Wunderground v.1.15,2013-02-21 03:25:00,
2013-02-20 22:30:00,22.9,11.1,30.10,West,271,5.0,7.0,60,0.00,,,0.00,Wunderground v.1.15,2013-02-21 03:30:00,
2013-02-20 22:36:00,22.8,11.0,30.10,WNW,290,5.0,6.0,60,0.00,,,0.00,Wunderground v.1.15,2013-02-21 03:36:00,
2013-02-20 22:42:00,22.8,11.3,30.10,WNW,288,5.0,6.0,61,0.00,,,0.00,Wunderground v.1.15,2013-02-21 03:42:00,
2013-02-20 22:47:00,22.7,11.3,30.11,NW,307,4.0,6.0,61,0.00,,,0.00,Wunderground v.1.15,2013-02-21 03:47:00,
2013-02-20 22:52:00,22.6,11.2,30.11,WNW,286,3.0,8.0,61,0.00,,,0.00,Wunderground v.1.15,2013-02-21 03:52:00,
2013-02-20 22:58:00,22.6,11.2,30.10,West,269,5.0,8.0,61,0.00,,,0.00,Wunderground v.1.15,2013-02-21 03:58:00,
2013-02-20 23:04:00,22.6,11.2,30.11,WSW,257,5.0,8.0,61,0.00,,,0.00,Wunderground v.1.15,2013-02-21 04:04:00,
2013-02-20 23:09:00,22.5,11.1,30.11,West,276,5.0,8.0,61,0.00,,,0.00,Wunderground v.1.15,2013-02-21 04:09:00,
2013-02-20 23:16:00,22.5,10.7,30.10,West,274,6.0,9.0,60,0.00,,,0.00,Wunderground v.1.15,2013-02-21 04:16:00,
2013-02-20 23:21:00,22.4,10.6,30.10,WNW,287,6.0,6.0,60,0.00,,,0.00,Wunderground v.1.15,2013-02-21 04:21:00,
2013-02-20 23:26:00,22.4,11.0,30.10,WNW,288,6.0,6.0,61,0.00,,,0.00,Wunderground v.1.15,2013-02-21 04:26:00,
2013-02-20 23:32:00,22.4,11.3,30.11,West,274,4.0,6.0,62,0.00,,,0.00,Wunderground v.1.15,2013-02-21 04:32:00,
2013-02-20 23:38:00,22.3,11.2,30.10,NW,305,5.0,7.0,62,0.00,,,0.00,Wunderground v.1.15,2013-02-21 04:38:00,
2013-02-20 23:43:00,22.2,11.5,30.10,WNW,283,5.0,5.0,63,0.00,,,0.00,Wunderground v.1.15,2013-02-21 04:43:00,
2013-02-20 23:49:00,22.2,11.5,30.11,WNW,297,5.0,5.0,63,0.00,,,0.00,Wunderground v.1.15,2013-02-21 04:49:00,
2013-02-20 23:55:00,22.2,11.5,30.10,West,263,5.0,7.0,63,0.00,,,0.00,Wunderground v.1.15,2013-02-21 04:55:00,